Tuesday, October 15, 2019, 2:02 AM EDT
Back to Local

KOWD, Norwood Memorial Airport

Location: Norwood, MA, United States Lat: 42.183
Local Time: 2:02 AM EDT ( 6:02 GMT) Lon: -71.167
Time Zone: US/Eastern Elev: 49 ft

Show me the last for .
Show Decoded

2019-10-15 01:15 METAR KOWD 150515Z AUTO 17004KT 3SM BR FEW002 09/07 A3001 RMK AO2 T00940072 =
2019-10-15 01:12 METAR KOWD 150512Z AUTO 17004KT 1 1/4SM HZ FEW002 10/07 A3001 RMK AO2 T01000072
                 =
2019-10-15 00:53 METAR KOWD 150453Z AUTO 00000KT 1/4SM FG VV002 10/08 A3000 RMK AO2 SLP159
                 T01000078 402170061 =
2019-10-15 00:49 METAR KOWD 150449Z AUTO 00000KT 1/2SM FG VV002 10/08 A3000 RMK AO2 =
2019-10-15 00:25 METAR KOWD 150425Z AUTO 00000KT 1 1/2SM BR CLR 11/09 A3000 RMK AO2 VIS 3/4V5
                 T01110094 =
2019-10-14 23:53 METAR KOWD 150353Z AUTO 00000KT 10SM CLR 14/11 A2999 RMK AO2 SLP154 T01390111 =
2019-10-14 22:53 METAR KOWD 150253Z AUTO 23005KT 10SM FEW010 15/12 A2998 RMK AO2 SLP150 T01500117
                 51019 =
2019-10-14 21:53 METAR KOWD 150153Z 22004KT 10SM CLR 15/12 A2996 RMK AO2 SLP143 T01500117 =
2019-10-14 20:53 METAR KOWD 150053Z 17003KT 10SM CLR 14/12 A2994 RMK AO2 SLP139 T01440117 =
2019-10-14 19:53 METAR KOWD 142353Z 19003KT 10SM CLR 16/13 A2992 RMK AO2 SLP131 T01610128 10217
                 20161 53016 =
2019-10-14 18:53 METAR KOWD 142253Z 20005KT 10SM CLR 17/13 A2990 RMK AO2 SLP125 T01720128 =
2019-10-14 17:53 METAR KOWD 142153Z 16004KT 10SM FEW036 19/13 A2989 RMK AO2 SLP121 T01890128 =
2019-10-14 16:53 METAR KOWD 142053Z 17003KT 10SM CLR 21/13 A2987 RMK AO2 SLP116 T02110128 56006 =
2019-10-14 15:53 METAR KOWD 141953Z VRB04KT 10SM SCT029 21/12 A2988 RMK AO2 SLP116 T02110122 =
2019-10-14 15:50 METAR KOWD 141950Z VRB04KT 10SM SCT029 21/13 A2988 RMK AO2 =
2019-10-14 15:43 METAR KOWD 141943Z 19004KT 10SM BKN027 BKN033 21/13 A2988 RMK AO2 T02110128 =
2019-10-14 15:36 METAR KOWD 141936Z 16004KT 10SM SCT027 21/13 A2988 RMK AO2 T02110128 =
2019-10-14 15:14 METAR KOWD 141914Z 10SM BKN025 22/13 A2988 RMK AO2 T02170133 =
2019-10-14 14:53 METAR KOWD 141853Z VRB04KT 10SM SCT030 21/13 A2989 RMK AO2 SLP121 T02060128 =
2019-10-14 14:44 METAR KOWD 141844Z 15006KT 10SM FEW024 BKN030 21/13 A2989 RMK AO2 T02110128 =
2019-10-14 14:13 METAR KOWD 141813Z 15005KT 10SM OVC029 19/12 A2991 RMK AO2 T01940122 =
2019-10-14 13:53 METAR KOWD 141753Z 17003KT 10SM OVC030 20/12 A2992 RMK AO2 SLP131 T02000122
                 10200 20100 56023 =
2019-10-14 13:35 METAR KOWD 141735Z 15005KT 10SM OVC033 20/12 A2993 RMK AO2 T02000122 =
2019-10-14 12:53 METAR KOWD 141653Z 17003KT 10SM OVC028 19/12 A2994 RMK AO2 SLP139 T01940117 =
2019-10-14 11:53 METAR KOWD 141553Z 00000KT 10SM BKN028 19/11 A2996 RMK AO2 SLP144 T01940106 =
2019-10-14 10:53 METAR KOWD 141453Z 00000KT 10SM CLR 18/10 A2999 RMK AO2 SLP154 T01830100 58006 =
2019-10-14 09:53 METAR KOWD 141353Z 16006KT 10SM FEW018 17/11 A3000 RMK AO2 SLP157 T01720106 =
2019-10-14 08:53 METAR KOWD 141253Z 00000KT 10SM CLR 14/11 A3001 RMK AO2 SLP163 T01390106 =
2019-10-14 07:53 METAR KOWD 141153Z 00000KT 9SM SCT050 10/07 A3000 RMK AO2 SLP159 T01000072 10100
                 20061 53004 =
2019-10-14 06:53 METAR KOWD 141053Z 00000KT 9SM BKN060 OVC080 09/07 A2999 RMK AO2 SLP155
                 T00940072 =
2019-10-14 05:53 METAR KOWD 140953Z AUTO 00000KT 10SM OVC070 09/07 A2999 RMK AO2 SLP154 T00940072
                 =
2019-10-14 04:53 METAR KOWD 140853Z AUTO 00000KT 8SM OVC085 09/07 A2999 RMK AO2 SLP155 T00940067
                 56018 =
2019-10-14 03:53 METAR KOWD 140753Z AUTO 00000KT 9SM OVC080 08/06 A3000 RMK AO2 SLP159 T00830061
                 =
2019-10-14 03:24 METAR KOWD 140724Z AUTO 00000KT 4SM BR OVC080 08/06 A2999 RMK AO2 PRESFR
                 T00780056 =
2019-10-14 03:13 METAR KOWD 140713Z AUTO 00000KT 1 3/4SM BR BKN075 07/05 A3001 RMK AO2 VIS 3/4V4
                 T00670050 =
2019-10-14 02:53 METAR KOWD 140653Z AUTO 00000KT 8SM CLR 06/04 A3002 RMK AO2 SLP163 T00610044 =

Support USWX by starting your Amazon purchase here.